createdAt,value
2024-01-11T00:02:16.608Z,4.90
2024-01-11T00:05:20.759Z,6.80
2024-01-11T00:08:24.442Z,5.63
2024-01-11T00:11:28.428Z,5.00
2024-01-11T00:14:32.200Z,4.22
2024-01-11T00:17:36.738Z,5.15
2024-01-11T00:20:40.395Z,5.47
2024-01-11T00:23:44.383Z,5.60
2024-01-11T00:26:47.938Z,6.15
2024-01-11T00:29:52.529Z,4.20
2024-01-11T00:32:56.705Z,5.45
2024-01-11T00:36:01.439Z,5.05
2024-01-11T00:39:05.462Z,5.13
2024-01-11T00:42:09.252Z,4.27
2024-01-11T00:45:13.929Z,5.90
2024-01-11T00:48:18.721Z,5.05
2024-01-11T00:51:22.469Z,10.20
2024-01-11T00:54:26.892Z,7.40
2024-01-11T00:57:30.466Z,9.63
2024-01-11T01:00:34.083Z,9.93
2024-01-11T01:03:38.489Z,5.53
2024-01-11T01:06:43.553Z,8.40
2024-01-11T01:09:47.081Z,7.93
2024-01-11T01:12:50.835Z,7.40
2024-01-11T01:15:54.440Z,6.20
2024-01-11T01:18:58.389Z,7.82
2024-01-11T01:22:02.114Z,5.10
2024-01-11T01:25:06.381Z,4.93
2024-01-11T01:28:10.437Z,5.55
2024-01-11T01:31:14.376Z,4.35
2024-01-11T01:34:17.967Z,7.65
2024-01-11T01:37:21.784Z,5.97
2024-01-11T01:40:26.376Z,3.75
2024-01-11T01:43:30.091Z,5.10
2024-01-11T01:46:34.687Z,5.32
2024-01-11T01:49:41.025Z,3.97
2024-01-11T01:52:46.236Z,4.77
2024-01-11T01:55:50.294Z,14.80
2024-01-11T01:58:55.592Z,6.18
2024-01-11T02:01:59.739Z,5.15
2024-01-11T02:05:04.185Z,5.65
2024-01-11T02:08:10.827Z,6.38
2024-01-11T02:11:14.456Z,9.63
2024-01-11T02:14:18.350Z,9.47
2024-01-11T02:17:23.118Z,9.65
2024-01-11T02:20:26.895Z,4.93
2024-01-11T02:23:31.280Z,3.17
2024-01-11T02:26:36.053Z,4.22
2024-01-11T02:29:40.197Z,8.88
2024-01-11T02:32:48.207Z,10.88
2024-01-11T02:35:53.109Z,1.98
2024-01-11T02:38:57.694Z,4.57
2024-01-11T02:42:02.487Z,7.85
2024-01-11T02:45:06.947Z,6.53
2024-01-11T02:48:10.702Z,5.85
2024-01-11T02:51:14.423Z,11.20
2024-01-11T02:54:18.342Z,6.13
2024-01-11T02:57:21.944Z,4.90
2024-01-11T03:00:25.580Z,1.60
2024-01-11T03:03:29.325Z,2.10
2024-01-11T03:06:33.540Z,1.77
2024-01-11T03:09:37.465Z,2.97
2024-01-11T03:12:41.974Z,2.42
2024-01-11T03:15:45.688Z,4.27
2024-01-11T03:18:49.584Z,2.70
2024-01-11T03:21:53.412Z,2.55
2024-01-11T03:24:56.977Z,2.03
2024-01-11T03:28:01.170Z,1.33
2024-01-11T03:31:05.213Z,1.35
2024-01-11T03:34:09.572Z,3.72
2024-01-11T03:37:13.500Z,1.40
2024-01-11T03:40:17.156Z,1.02
2024-01-11T03:43:21.069Z,1.23
2024-01-11T03:46:24.825Z,1.93
2024-01-11T03:49:28.308Z,0.85
2024-01-11T03:52:32.128Z,1.30
2024-01-11T03:55:36.366Z,1.00
2024-01-11T03:58:42.390Z,1.05
2024-01-11T04:01:46.199Z,1.02
2024-01-11T04:04:49.861Z,1.58
2024-01-11T04:07:53.614Z,2.05
2024-01-11T04:10:57.259Z,2.08
2024-01-11T04:14:00.846Z,1.30
2024-01-11T04:17:05.501Z,1.77
2024-01-11T04:20:12.580Z,0.93
2024-01-11T04:23:16.224Z,3.90
2024-01-11T04:26:20.226Z,1.47
2024-01-11T04:29:23.762Z,1.15
2024-01-11T04:32:27.497Z,1.55
2024-01-11T04:35:31.282Z,1.10
2024-01-11T04:38:35.038Z,2.47
2024-01-11T04:41:39.064Z,1.33
2024-01-11T04:44:42.781Z,1.08
2024-01-11T04:47:46.678Z,1.93
2024-01-11T04:50:50.364Z,3.08
2024-01-11T04:53:54.986Z,4.60
2024-01-11T04:56:58.484Z,2.40
2024-01-11T05:00:03.790Z,1.95
2024-01-11T05:03:08.162Z,2.47
2024-01-11T05:06:21.410Z,2.90
2024-01-11T05:09:25.054Z,3.10
2024-01-11T05:12:28.543Z,1.98
2024-01-11T05:15:32.434Z,2.55
2024-01-11T05:18:36.365Z,1.77
2024-01-11T05:21:39.841Z,1.55
2024-01-11T05:24:43.494Z,3.13
2024-01-11T05:27:47.094Z,2.58
2024-01-11T05:30:51.171Z,3.65
2024-01-11T05:33:55.273Z,1.95
2024-01-11T05:37:00.933Z,3.25
2024-01-11T05:40:05.389Z,4.67
2024-01-11T05:43:08.955Z,22.00
2024-01-11T05:46:12.701Z,4.80
2024-01-11T05:49:17.087Z,3.83
2024-01-11T05:52:21.609Z,4.90
2024-01-11T05:55:25.343Z,3.58
2024-01-11T05:58:28.853Z,7.63
2024-01-11T06:01:33.863Z,10.60
2024-01-11T06:04:37.814Z,4.05
2024-01-11T06:07:41.855Z,13.05
2024-01-11T06:10:45.457Z,3.30
2024-01-11T06:13:49.694Z,3.83
2024-01-11T06:16:53.536Z,1.65
2024-01-11T06:19:57.482Z,3.50
2024-01-11T06:23:01.355Z,2.22
2024-01-11T06:26:05.379Z,2.10
2024-01-11T06:29:09.338Z,2.08
2024-01-11T06:32:13.629Z,4.63
2024-01-11T06:35:17.358Z,11.07
2024-01-11T06:38:21.064Z,20.45
2024-01-11T06:41:24.698Z,6.10
2024-01-11T06:44:28.292Z,6.18
2024-01-11T06:47:32.359Z,3.58
2024-01-11T06:50:36.798Z,3.60
2024-01-11T06:53:40.430Z,4.60
2024-01-11T06:56:44.294Z,4.68
2024-01-11T06:59:48.339Z,4.63
2024-01-11T07:02:52.593Z,4.68
2024-01-11T07:05:56.338Z,6.88
2024-01-11T07:09:00.307Z,2.92
2024-01-11T07:12:03.918Z,3.37
2024-01-11T07:15:09.982Z,2.60
2024-01-11T07:18:13.866Z,3.47
2024-01-11T07:21:33.558Z,4.93
2024-01-11T07:24:39.695Z,24.90
2024-01-11T07:27:43.457Z,15.05
2024-01-11T07:30:51.164Z,9.70
2024-01-11T07:33:54.979Z,5.95
2024-01-11T07:36:58.785Z,6.28
2024-01-11T07:40:02.661Z,7.80
2024-01-11T07:43:06.406Z,5.53
2024-01-11T07:46:09.896Z,3.70
2024-01-11T07:49:13.485Z,8.60
2024-01-11T07:52:21.546Z,8.27
2024-01-11T07:55:26.201Z,4.80
2024-01-11T07:58:29.869Z,13.45
2024-01-11T08:01:33.381Z,7.05
2024-01-11T08:04:37.980Z,7.07
2024-01-11T08:07:41.838Z,4.32
2024-01-11T08:10:45.344Z,6.63
2024-01-11T08:13:49.216Z,6.47
2024-01-11T08:16:55.358Z,5.28
2024-01-11T08:19:59.315Z,5.03
2024-01-11T08:23:03.160Z,30.57
2024-01-11T08:26:07.320Z,7.03
2024-01-11T08:29:11.389Z,6.82
2024-01-11T08:32:24.395Z,3.90
2024-01-11T08:35:34.884Z,3.80
2024-01-11T08:38:38.714Z,3.38
2024-01-11T08:41:42.669Z,2.80
2024-01-11T08:44:46.836Z,2.63
2024-01-11T08:47:50.613Z,5.00
2024-01-11T08:50:54.501Z,2.55
2024-01-11T08:53:58.537Z,2.23
2024-01-11T08:57:03.821Z,2.10
2024-01-11T09:00:10.366Z,2.80
2024-01-11T09:03:15.912Z,3.45
2024-01-11T09:06:19.459Z,3.25
2024-01-11T09:09:23.212Z,8.40
2024-01-11T09:12:26.655Z,7.60
2024-01-11T09:15:30.671Z,3.50
2024-01-11T09:18:36.359Z,2.58
2024-01-11T09:21:39.924Z,2.95
2024-01-11T09:24:43.595Z,11.40
2024-01-11T09:27:47.221Z,3.67
2024-01-11T09:30:51.616Z,55.38
2024-01-11T09:33:55.988Z,49.05
2024-01-11T09:37:00.889Z,52.13
2024-01-11T09:40:05.838Z,45.35
2024-01-11T09:43:12.376Z,17.30
2024-01-11T09:46:17.338Z,24.57
2024-01-11T09:49:24.082Z,18.98
2024-01-11T09:52:28.793Z,5.95
2024-01-11T09:55:32.341Z,1.80
2024-01-11T09:58:40.631Z,3.67
2024-01-11T10:01:45.221Z,18.00
2024-01-11T10:04:49.191Z,7.80
2024-01-11T10:07:52.885Z,13.60
2024-01-11T10:10:56.372Z,25.20
2024-01-11T10:14:02.628Z,50.42
2024-01-11T10:17:07.125Z,59.60
2024-01-11T10:20:12.750Z,68.38
2024-01-11T10:23:16.894Z,66.40
2024-01-11T10:26:21.308Z,58.67
2024-01-11T10:29:25.949Z,59.90
2024-01-11T10:32:31.213Z,55.20
2024-01-11T10:35:37.861Z,46.95
2024-01-11T10:38:42.968Z,44.70
2024-01-11T10:41:59.770Z,54.03
2024-01-11T10:45:07.444Z,55.58
2024-01-11T10:48:23.026Z,61.87
2024-01-11T10:51:28.061Z,72.55
2024-01-11T10:54:32.897Z,70.50
2024-01-11T10:57:36.678Z,62.33
2024-01-11T11:00:41.334Z,64.13
2024-01-11T11:03:47.626Z,68.18
2024-01-11T11:07:01.003Z,67.35
2024-01-11T11:10:06.434Z,68.28
2024-01-11T11:13:11.817Z,65.35
2024-01-11T11:16:19.675Z,65.13
2024-01-11T11:19:23.732Z,61.20
2024-01-11T11:22:29.601Z,57.70
2024-01-11T11:25:33.913Z,56.42
2024-01-11T11:28:38.576Z,55.37
2024-01-11T11:31:55.348Z,55.50
2024-01-11T11:34:59.136Z,59.95
2024-01-11T11:38:03.037Z,64.88
2024-01-11T11:41:06.685Z,67.05
2024-01-11T11:44:15.908Z,69.35
2024-01-11T11:47:23.379Z,63.85
2024-01-11T11:50:27.262Z,63.83
2024-01-11T11:53:36.496Z,65.15
2024-01-11T11:56:40.551Z,60.03
2024-01-11T11:59:44.894Z,55.40
2024-01-11T12:02:54.452Z,57.03
2024-01-11T12:05:59.993Z,62.60
2024-01-11T12:09:04.514Z,58.55
2024-01-11T12:12:15.404Z,57.17
2024-01-11T12:15:20.911Z,51.95
2024-01-11T12:18:24.844Z,51.42
2024-01-11T12:21:28.893Z,49.63
2024-01-11T12:24:32.815Z,51.30
2024-01-11T12:27:36.486Z,50.47
2024-01-11T12:30:40.640Z,55.00
2024-01-11T12:33:45.346Z,56.13
2024-01-11T12:36:49.656Z,52.13
2024-01-11T12:39:59.990Z,57.25
2024-01-11T12:43:03.630Z,52.10
2024-01-11T12:46:07.682Z,48.88
2024-01-11T12:49:13.115Z,49.85
2024-01-11T12:52:21.553Z,51.03
2024-01-11T12:55:26.257Z,52.97
2024-01-11T12:58:30.006Z,58.55
2024-01-11T13:01:33.917Z,66.73
2024-01-11T13:04:37.713Z,70.63
2024-01-11T13:07:41.304Z,66.95
2024-01-11T13:10:44.943Z,62.22
2024-01-11T13:13:49.402Z,57.65
2024-01-11T13:16:53.179Z,59.78
2024-01-11T13:19:57.076Z,61.45
2024-01-11T13:23:23.688Z,64.47
2024-01-11T13:26:27.236Z,57.15
2024-01-11T13:29:30.871Z,49.10
2024-01-11T13:32:34.657Z,56.53
2024-01-11T13:35:39.537Z,48.22
2024-01-11T13:38:43.544Z,45.42
2024-01-11T13:41:47.240Z,42.90
2024-01-11T13:44:50.751Z,44.30
2024-01-11T13:47:58.609Z,46.63
2024-01-11T13:51:02.525Z,50.67
2024-01-11T13:54:06.205Z,46.53
2024-01-11T13:57:09.856Z,45.60
2024-01-11T14:00:14.188Z,39.50
2024-01-11T14:03:18.501Z,43.13
2024-01-11T14:06:23.313Z,38.65
2024-01-11T14:09:27.121Z,35.13
2024-01-11T14:12:31.538Z,31.70
2024-01-11T14:15:35.286Z,29.13
2024-01-11T14:18:39.283Z,33.35
2024-01-11T14:21:43.076Z,33.67
2024-01-11T14:24:47.365Z,34.63
2024-01-11T14:27:51.184Z,33.53
2024-01-11T14:30:54.696Z,35.90
2024-01-11T14:33:58.422Z,40.47
2024-01-11T14:37:02.483Z,43.22
2024-01-11T14:40:07.995Z,47.60
2024-01-11T14:43:11.705Z,57.42
2024-01-11T14:46:15.299Z,57.35
2024-01-11T14:49:18.992Z,52.00
2024-01-11T14:52:22.585Z,56.08
2024-01-11T14:55:26.289Z,51.10
2024-01-11T14:58:29.920Z,50.72
2024-01-11T15:01:34.450Z,70.43
2024-01-11T15:04:38.994Z,58.77
2024-01-11T15:07:42.510Z,55.88
2024-01-11T15:10:46.435Z,58.73
2024-01-11T15:13:50.054Z,50.05
2024-01-11T15:16:53.858Z,70.80
2024-01-11T15:19:58.383Z,57.85
2024-01-11T15:23:02.114Z,56.72
2024-01-11T15:26:06.435Z,53.07
2024-01-11T15:29:10.706Z,54.83
2024-01-11T15:32:14.357Z,59.67
2024-01-11T15:35:17.992Z,57.27
2024-01-11T15:38:21.928Z,58.53
2024-01-11T15:41:25.843Z,53.85
2024-01-11T15:44:30.232Z,60.35
2024-01-11T15:47:34.901Z,41.78
2024-01-11T15:50:38.494Z,48.75
2024-01-11T15:53:43.347Z,47.42
2024-01-11T15:56:47.332Z,52.50
2024-01-11T15:59:50.744Z,50.38
2024-01-11T16:02:56.096Z,43.75
2024-01-11T16:06:00.084Z,50.57
2024-01-11T16:09:07.075Z,54.22
2024-01-11T16:12:11.084Z,50.92
2024-01-11T16:15:17.781Z,55.90
2024-01-11T16:18:21.873Z,50.58
2024-01-11T16:21:25.665Z,50.55
2024-01-11T16:24:29.461Z,49.50
2024-01-11T16:27:33.192Z,40.60
2024-01-11T16:30:36.950Z,42.80
2024-01-11T16:33:40.735Z,46.35
2024-01-11T16:36:44.513Z,31.87
2024-01-11T16:39:50.189Z,41.50
2024-01-11T16:42:54.036Z,53.58
2024-01-11T16:45:57.798Z,45.63
2024-01-11T16:49:03.104Z,40.85
2024-01-11T16:52:08.398Z,48.67
2024-01-11T16:55:11.864Z,46.75
2024-01-11T16:58:15.869Z,47.27
2024-01-11T17:01:19.808Z,50.55
2024-01-11T17:04:23.701Z,49.60
2024-01-11T17:07:27.559Z,56.27
2024-01-11T17:10:31.187Z,46.25
2024-01-11T17:13:34.918Z,48.63
2024-01-11T17:16:38.590Z,53.05
2024-01-11T17:19:41.998Z,54.42
2024-01-11T17:22:45.832Z,52.60
2024-01-11T17:25:49.643Z,57.10
2024-01-11T17:28:53.742Z,64.17
2024-01-11T17:31:57.156Z,69.60
2024-01-11T17:35:01.071Z,45.90
2024-01-11T17:38:05.162Z,39.93
2024-01-11T17:41:09.047Z,38.97
2024-01-11T17:44:12.634Z,43.28
2024-01-11T17:47:16.334Z,43.45
2024-01-11T17:50:21.130Z,40.00
2024-01-11T17:53:24.873Z,37.47
2024-01-11T17:56:28.434Z,42.03
2024-01-11T17:59:32.224Z,38.40
2024-01-11T18:02:36.160Z,44.25
2024-01-11T18:05:40.773Z,42.00
2024-01-11T18:08:44.784Z,31.17
2024-01-11T18:11:51.071Z,39.97
2024-01-11T18:14:56.825Z,40.80
2024-01-11T18:18:00.962Z,44.13
2024-01-11T18:21:04.878Z,47.70
2024-01-11T18:24:08.438Z,49.60
2024-01-11T18:27:12.295Z,50.33
2024-01-11T18:30:16.156Z,39.63
2024-01-11T18:33:20.227Z,36.95
2024-01-11T18:36:25.455Z,30.33
2024-01-11T18:39:29.591Z,30.33
2024-01-11T18:42:33.285Z,33.75
2024-01-11T18:45:36.872Z,36.92
2024-01-11T18:48:40.849Z,29.38
2024-01-11T18:51:44.732Z,39.58
2024-01-11T18:54:54.518Z,29.35
2024-01-11T18:58:06.217Z,33.03
2024-01-11T19:01:11.172Z,33.00
2024-01-11T19:04:15.974Z,33.15
2024-01-11T19:07:22.184Z,34.40
2024-01-11T19:10:26.310Z,34.07
2024-01-11T19:13:30.053Z,34.25
2024-01-11T19:16:33.903Z,27.35
2024-01-11T19:19:37.496Z,30.90
2024-01-11T19:22:40.987Z,33.75
2024-01-11T19:25:44.670Z,28.65
2024-01-11T19:28:48.661Z,29.75
2024-01-11T19:31:52.499Z,39.27
2024-01-11T19:34:55.957Z,37.05
2024-01-11T19:37:59.860Z,34.88
2024-01-11T19:41:03.611Z,39.03
2024-01-11T19:44:10.135Z,32.38
2024-01-11T19:47:13.850Z,35.05
2024-01-11T19:50:17.681Z,28.90
2024-01-11T19:53:21.424Z,26.38
2024-01-11T19:56:31.744Z,30.58
2024-01-11T19:59:36.368Z,29.55
2024-01-11T20:02:40.401Z,28.13
2024-01-11T20:05:44.280Z,26.20
2024-01-11T20:08:48.057Z,23.30
2024-01-11T20:11:52.269Z,24.20
2024-01-11T20:14:56.565Z,20.38
2024-01-11T20:18:00.514Z,22.05
2024-01-11T20:21:04.476Z,20.85
2024-01-11T20:24:08.804Z,15.73
2024-01-11T20:27:12.892Z,16.58
2024-01-11T20:30:17.323Z,14.27
2024-01-11T20:33:21.067Z,17.23
2024-01-11T20:36:24.596Z,21.75
2024-01-11T20:39:29.244Z,17.50
2024-01-11T20:42:32.877Z,17.20
2024-01-11T20:45:36.441Z,15.60
2024-01-11T20:48:40.771Z,16.15
2024-01-11T20:51:44.950Z,21.23
2024-01-11T20:54:50.737Z,13.43
2024-01-11T20:57:55.232Z,14.30
2024-01-11T21:00:58.749Z,13.52
2024-01-11T21:04:02.759Z,10.00
2024-01-11T21:07:06.660Z,12.25
2024-01-11T21:10:10.631Z,12.30
2024-01-11T21:13:16.456Z,15.00
2024-01-11T21:16:20.972Z,13.00
2024-01-11T21:19:25.071Z,23.80
2024-01-11T21:22:28.719Z,33.85
2024-01-11T21:25:32.633Z,27.42
2024-01-11T21:28:36.304Z,22.50
2024-01-11T21:31:40.239Z,26.75
2024-01-11T21:34:44.053Z,19.93
2024-01-11T21:37:50.312Z,26.50
2024-01-11T21:40:54.743Z,33.20
2024-01-11T21:43:58.789Z,26.57
2024-01-11T21:47:02.438Z,28.42
2024-01-11T21:50:06.380Z,29.88
2024-01-11T21:53:10.250Z,27.98
2024-01-11T21:56:14.837Z,28.27
2024-01-11T21:59:18.423Z,27.52
2024-01-11T22:02:22.220Z,22.50
2024-01-11T22:05:26.847Z,23.40
2024-01-11T22:08:30.598Z,21.02
2024-01-11T22:11:36.422Z,23.25
2024-01-11T22:14:41.071Z,22.60
2024-01-11T22:17:45.270Z,17.88
2024-01-11T22:20:49.272Z,17.98
2024-01-11T22:23:53.236Z,17.52
2024-01-11T22:26:56.932Z,19.48
2024-01-11T22:30:01.897Z,17.52
2024-01-11T22:33:05.868Z,16.85
2024-01-11T22:36:11.069Z,19.33
2024-01-11T22:39:14.993Z,19.05
2024-01-11T22:42:19.322Z,18.15
2024-01-11T22:45:23.043Z,15.80
2024-01-11T22:48:26.815Z,20.98
2024-01-11T22:51:30.541Z,16.10
2024-01-11T22:54:35.710Z,11.88
2024-01-11T22:57:39.563Z,15.85
2024-01-11T23:00:43.219Z,14.73
2024-01-11T23:03:46.878Z,17.77
2024-01-11T23:06:50.732Z,17.70
2024-01-11T23:09:55.214Z,16.25
2024-01-11T23:12:58.747Z,18.60
2024-01-11T23:16:03.285Z,16.43
2024-01-11T23:19:07.433Z,16.05
2024-01-11T23:22:11.321Z,13.70
2024-01-11T23:25:15.446Z,13.00
2024-01-11T23:28:19.243Z,11.50
2024-01-11T23:31:23.537Z,12.23
2024-01-11T23:34:27.333Z,17.33
2024-01-11T23:37:30.794Z,19.50
2024-01-11T23:40:34.603Z,19.40
2024-01-11T23:43:39.131Z,23.83
2024-01-11T23:46:42.851Z,26.00
2024-01-11T23:49:46.556Z,19.73
2024-01-11T23:52:50.419Z,22.08
2024-01-11T23:55:55.705Z,22.38
2024-01-11T23:58:59.339Z,23.77
